Reed, Oklahoma
Current Conditions -  °F | °C
As of 9:15 AM on Sunday 21 Dec 2014 (Local Time) from KAXS Reporting Station
Overcast Overcast  
Wind Chill: 39°   Ceiling: 600
Heat Index: 45°   Visibility: 7mi
Dew Point: 42°   Wind: 14mph
Humidity: 89%   Direction: 160°SSE
Pressure: 29.96"   Gusts: 18mph
Location:  34.8485°N, 99.5641°W
Report Text: KAXS 211515Z AUTO 16012G16KT 7SM OVC006 07/06 A2996 RMK AO2 T00730056
Loading
Personal Weather Stations






























Interactive Weather Map New forecast layout! Learn more

10-Day Weather Forecast

Advertisements
Track Severe Weather on mobile